Friday, September 21, 2018, 10:04 PM EDT
Back to Local

KMVY, Vineyard Haven Marthas Vin

Location: Vineyard Haven, MA, United States Lat: 41.4
Local Time: 10:04 PM EDT ( 2:04 GMT) Lon: -70.617
Time Zone: US/Eastern Elev: 68 ft

Show me the last for .
Show Decoded

2018-09-21 21:53 METAR KMVY 220153Z 19014KT 10SM BKN047 19/18 A3004 RMK AO2 SLP172 T01940178 =
2018-09-21 20:53 METAR KMVY 220053Z 19012KT 10SM OVC048 19/17 A3005 RMK AO2 SLP177 T01940172 =
2018-09-21 19:53 METAR KMVY 212353Z 20011KT 10SM BKN047 19/16 A3008 RMK AO2 SLP185 T01890161
                 10200 20183 56022 =
2018-09-21 18:53 METAR KMVY 212253Z 19011KT 10SM OVC055 18/16 A3009 RMK AO2 SLP191 T01830156 =
2018-09-21 17:53 METAR KMVY 212153Z 21008KT 10SM SCT050 18/15 A3012 RMK AO2 SLP200 T01830150 =
2018-09-21 16:53 METAR KMVY 212053Z 21014KT 10SM CLR 19/14 A3014 RMK AO2 SLP207 T01940144 56022 =
2018-09-21 16:18 METAR KMVY 212018Z 19011KT 10SM SCT018 20/15 A3015 RMK AO2 T02000150 =
2018-09-21 15:53 METAR KMVY 211953Z 18011KT 10SM BKN021 19/15 A3016 RMK AO2 SLP213 T01940150 =
2018-09-21 15:00 METAR KMVY 211900Z 20011KT 10SM BKN020 19/14 A3018 RMK AO2 T01940139 =
2018-09-21 14:53 METAR KMVY 211853Z 19010KT 10SM SCT022 19/14 A3019 RMK AO2 SLP223 T01940144 =
2018-09-21 13:53 METAR KMVY 211753Z 18010KT 10SM CLR 19/13 A3021 RMK AO2 SLP229 T01940133 10200
                 20139 56023 =
2018-09-21 12:53 METAR KMVY 211653Z 16013KT 10SM SCT023 19/13 A3023 RMK AO2 SLP235 T01940133 =
2018-09-21 11:53 METAR KMVY 211553Z 16008KT 10SM CLR 19/12 A3025 RMK AO2 SLP244 T01890122 =
2018-09-21 10:53 METAR KMVY 211453Z 13011KT 10SM SCT024 19/13 A3028 RMK AO2 SLP253 T01890128
                 58010 =
2018-09-21 09:53 METAR KMVY 211353Z 11008KT 10SM FEW026 19/12 A3030 RMK AO2 SLP260 T01890122 =
2018-09-21 08:53 METAR KMVY 211253Z 16005KT 10SM CLR 17/12 A3031 RMK AO2 SLP262 T01720122 =
2018-09-21 07:53 METAR KMVY 211153Z 00000KT 10SM CLR 14/13 A3031 RMK AO2 SLP263 70002 T01390133
                 10139 20094 51009 =
2018-09-21 06:53 METAR KMVY 211053Z 00000KT 10SM CLR 12/12 A3030 RMK AO2 SLP262 T01170117 =
2018-09-21 05:53 METAR KMVY 210953Z 00000KT 10SM CLR 11/11 A3029 RMK AO2 SLP256 T01060106 =
2018-09-21 04:53 METAR KMVY 210853Z AUTO 00000KT 10SM CLR 09/09 A3028 RMK AO2 SLP254 T00940094
                 51003 =
2018-09-21 04:19 METAR KMVY 210819Z AUTO 00000KT 10SM SCT028 11/11 A3027 RMK AO2 T01060106 =
2018-09-21 04:00 METAR KMVY 210800Z AUTO 00000KT 10SM BKN027 11/11 A3027 RMK AO2 T01110111 =
2018-09-21 03:53 METAR KMVY 210753Z AUTO 00000KT 10SM SCT027 BKN031 11/11 A3027 RMK AO2 SLP251
                 T01110106 =
2018-09-21 02:53 METAR KMVY 210653Z AUTO 00000KT 10SM CLR 11/11 A3028 RMK AO2 SLP254 T01110111 =
2018-09-21 01:53 METAR KMVY 210553Z AUTO 11004KT 10SM CLR 13/12 A3027 RMK AO2 SLP251 T01330122
                 10167 20128 58009 =
2018-09-21 00:53 METAR KMVY 210453Z AUTO 10003KT 10SM CLR 14/13 A3029 RMK AO2 SLP258 T01440128
                 402110128 =
2018-09-20 23:53 METAR KMVY 210353Z AUTO 11003KT 10SM FEW026 14/13 A3029 RMK AO2 SLP258 T01390128
                 =
2018-09-20 22:53 METAR KMVY 210253Z AUTO 00000KT 10SM SCT026 BKN050 16/13 A3030 RMK AO2 SLP260
                 T01560128 53005 =
2018-09-20 22:13 METAR KMVY 210213Z AUTO 07004KT 10SM BKN026 BKN034 OVC044 16/13 A3029 RMK AO2
                 T01610133 =

Support USWX by starting your Amazon purchase here.